sensor_id;sensor_type;location;lat;lon;timestamp;P1;durP1;ratioP1;P2;durP2;ratioP2
5060;SDS011;2549;52.128;21.068;2022-08-21T00:01:49;4.70;;;3.27;;
5060;SDS011;2549;52.128;21.068;2022-08-21T00:04:16;4.10;;;3.70;;
5060;SDS011;2549;52.128;21.068;2022-08-21T00:06:48;7.83;;;3.70;;
5060;SDS011;2549;52.128;21.068;2022-08-21T00:09:18;4.97;;;3.40;;
5060;SDS011;2549;52.128;21.068;2022-08-21T00:11:46;8.07;;;3.93;;
5060;SDS011;2549;52.128;21.068;2022-08-21T00:14:14;11.97;;;3.63;;
5060;SDS011;2549;52.128;21.068;2022-08-21T00:16:41;3.67;;;3.37;;
5060;SDS011;2549;52.128;21.068;2022-08-21T00:19:08;6.77;;;3.60;;
5060;SDS011;2549;52.128;21.068;2022-08-21T00:21:35;7.30;;;4.63;;
5060;SDS011;2549;52.128;21.068;2022-08-21T00:24:03;4.80;;;3.80;;
5060;SDS011;2549;52.128;21.068;2022-08-21T00:26:30;4.37;;;3.90;;
5060;SDS011;2549;52.128;21.068;2022-08-21T00:28:57;5.63;;;4.00;;
5060;SDS011;2549;52.128;21.068;2022-08-21T00:31:25;6.93;;;4.27;;
5060;SDS011;2549;52.128;21.068;2022-08-21T00:33:52;12.07;;;3.90;;
5060;SDS011;2549;52.128;21.068;2022-08-21T00:36:26;4.97;;;3.93;;
5060;SDS011;2549;52.128;21.068;2022-08-21T00:38:53;9.03;;;4.33;;
5060;SDS011;2549;52.128;21.068;2022-08-21T00:41:20;12.63;;;4.30;;
5060;SDS011;2549;52.128;21.068;2022-08-21T00:44:05;4.83;;;4.33;;
5060;SDS011;2549;52.128;21.068;2022-08-21T00:46:34;5.77;;;4.30;;
5060;SDS011;2549;52.128;21.068;2022-08-21T00:49:03;6.57;;;4.00;;
5060;SDS011;2549;52.128;21.068;2022-08-21T00:51:37;5.77;;;3.60;;
5060;SDS011;2549;52.128;21.068;2022-08-21T00:54:07;4.47;;;3.73;;
5060;SDS011;2549;52.128;21.068;2022-08-21T00:56:43;3.83;;;3.53;;
5060;SDS011;2549;52.128;21.068;2022-08-21T00:59:11;3.93;;;3.50;;
5060;SDS011;2549;52.128;21.068;2022-08-21T01:01:38;4.13;;;3.57;;
5060;SDS011;2549;52.128;21.068;2022-08-21T01:04:06;3.90;;;3.60;;
5060;SDS011;2549;52.128;21.068;2022-08-21T01:06:33;5.10;;;3.53;;
5060;SDS011;2549;52.128;21.068;2022-08-21T01:09:01;10.67;;;4.30;;
5060;SDS011;2549;52.128;21.068;2022-08-21T01:11:28;6.13;;;3.80;;
5060;SDS011;2549;52.128;21.068;2022-08-21T01:13:56;5.00;;;3.60;;
5060;SDS011;2549;52.128;21.068;2022-08-21T01:16:29;9.33;;;5.03;;
5060;SDS011;2549;52.128;21.068;2022-08-21T01:18:57;6.47;;;4.17;;
5060;SDS011;2549;52.128;21.068;2022-08-21T01:21:25;6.43;;;3.97;;
5060;SDS011;2549;52.128;21.068;2022-08-21T01:23:54;4.60;;;4.20;;
5060;SDS011;2549;52.128;21.068;2022-08-21T01:26:25;5.40;;;4.10;;
5060;SDS011;2549;52.128;21.068;2022-08-21T01:29:01;6.33;;;3.53;;
5060;SDS011;2549;52.128;21.068;2022-08-21T01:31:29;6.27;;;3.70;;
5060;SDS011;2549;52.128;21.068;2022-08-21T01:33:57;8.57;;;4.30;;
5060;SDS011;2549;52.128;21.068;2022-08-21T01:36:25;3.33;;;3.03;;
5060;SDS011;2549;52.128;21.068;2022-08-21T01:38:52;4.40;;;3.70;;
5060;SDS011;2549;52.128;21.068;2022-08-21T01:41:19;3.80;;;3.50;;
5060;SDS011;2549;52.128;21.068;2022-08-21T01:43:46;10.10;;;4.50;;
5060;SDS011;2549;52.128;21.068;2022-08-21T01:46:13;4.03;;;3.73;;
5060;SDS011;2549;52.128;21.068;2022-08-21T01:48:40;4.40;;;4.00;;
5060;SDS011;2549;52.128;21.068;2022-08-21T01:51:08;4.13;;;3.83;;
5060;SDS011;2549;52.128;21.068;2022-08-21T01:53:35;8.50;;;5.07;;
5060;SDS011;2549;52.128;21.068;2022-08-21T01:56:04;5.00;;;3.90;;
5060;SDS011;2549;52.128;21.068;2022-08-21T01:58:38;4.80;;;4.30;;
5060;SDS011;2549;52.128;21.068;2022-08-21T02:01:05;5.13;;;4.67;;
5060;SDS011;2549;52.128;21.068;2022-08-21T02:03:33;4.53;;;4.13;;
5060;SDS011;2549;52.128;21.068;2022-08-21T02:06:02;6.13;;;4.60;;
5060;SDS011;2549;52.128;21.068;2022-08-21T02:08:30;5.37;;;4.83;;
5060;SDS011;2549;52.128;21.068;2022-08-21T02:10:58;10.73;;;3.73;;
5060;SDS011;2549;52.128;21.068;2022-08-21T02:13:26;4.87;;;4.40;;
5060;SDS011;2549;52.128;21.068;2022-08-21T02:15:53;7.00;;;3.83;;
5060;SDS011;2549;52.128;21.068;2022-08-21T02:18:19;5.00;;;4.00;;
5060;SDS011;2549;52.128;21.068;2022-08-21T02:20:48;5.50;;;3.67;;
5060;SDS011;2549;52.128;21.068;2022-08-21T02:23:21;4.83;;;4.33;;
5060;SDS011;2549;52.128;21.068;2022-08-21T02:25:53;4.70;;;4.27;;
5060;SDS011;2549;52.128;21.068;2022-08-21T02:28:24;7.40;;;4.60;;
5060;SDS011;2549;52.128;21.068;2022-08-21T02:30:53;26.63;;;4.67;;
5060;SDS011;2549;52.128;21.068;2022-08-21T02:33:21;4.33;;;3.80;;
5060;SDS011;2549;52.128;21.068;2022-08-21T02:35:48;4.37;;;3.97;;
5060;SDS011;2549;52.128;21.068;2022-08-21T02:38:18;8.80;;;4.13;;
5060;SDS011;2549;52.128;21.068;2022-08-21T02:40:48;6.63;;;4.40;;
5060;SDS011;2549;52.128;21.068;2022-08-21T02:43:17;3.87;;;3.57;;
5060;SDS011;2549;52.128;21.068;2022-08-21T02:45:45;5.40;;;4.20;;
5060;SDS011;2549;52.128;21.068;2022-08-21T02:48:15;5.83;;;3.70;;
5060;SDS011;2549;52.128;21.068;2022-08-21T02:50:50;15.03;;;4.33;;
5060;SDS011;2549;52.128;21.068;2022-08-21T02:53:19;3.77;;;3.47;;
5060;SDS011;2549;52.128;21.068;2022-08-21T02:55:47;4.10;;;3.80;;
5060;SDS011;2549;52.128;21.068;2022-08-21T02:58:16;6.63;;;4.40;;
5060;SDS011;2549;52.128;21.068;2022-08-21T03:00:45;5.53;;;4.27;;
5060;SDS011;2549;52.128;21.068;2022-08-21T03:03:12;4.70;;;3.80;;
5060;SDS011;2549;52.128;21.068;2022-08-21T03:05:41;4.20;;;3.80;;
5060;SDS011;2549;52.128;21.068;2022-08-21T03:08:09;5.93;;;3.90;;
5060;SDS011;2549;52.128;21.068;2022-08-21T03:10:39;7.50;;;3.90;;
5060;SDS011;2549;52.128;21.068;2022-08-21T03:13:08;5.13;;;4.20;;
5060;SDS011;2549;52.128;21.068;2022-08-21T03:15:35;8.43;;;5.17;;
5060;SDS011;2549;52.128;21.068;2022-08-21T03:18:03;8.73;;;3.80;;
5060;SDS011;2549;52.128;21.068;2022-08-21T03:20:30;4.73;;;4.20;;
5060;SDS011;2549;52.128;21.068;2022-08-21T03:22:59;4.67;;;4.27;;
5060;SDS011;2549;52.128;21.068;2022-08-21T03:25:27;7.97;;;4.73;;
5060;SDS011;2549;52.128;21.068;2022-08-21T03:28:07;4.17;;;3.87;;
5060;SDS011;2549;52.128;21.068;2022-08-21T03:30:42;11.80;;;4.30;;
5060;SDS011;2549;52.128;21.068;2022-08-21T03:33:10;12.10;;;3.97;;
5060;SDS011;2549;52.128;21.068;2022-08-21T03:35:41;4.80;;;3.77;;
5060;SDS011;2549;52.128;21.068;2022-08-21T03:38:09;4.10;;;3.80;;
5060;SDS011;2549;52.128;21.068;2022-08-21T03:40:36;4.80;;;4.30;;
5060;SDS011;2549;52.128;21.068;2022-08-21T03:43:03;5.07;;;4.57;;
5060;SDS011;2549;52.128;21.068;2022-08-21T03:45:30;4.30;;;3.80;;
5060;SDS011;2549;52.128;21.068;2022-08-21T03:47:59;7.17;;;4.20;;
5060;SDS011;2549;52.128;21.068;2022-08-21T03:50:30;6.43;;;4.57;;
5060;SDS011;2549;52.128;21.068;2022-08-21T03:53:01;7.03;;;4.10;;
5060;SDS011;2549;52.128;21.068;2022-08-21T03:55:28;5.20;;;4.30;;
5060;SDS011;2549;52.128;21.068;2022-08-21T03:57:55;11.10;;;4.43;;
5060;SDS011;2549;52.128;21.068;2022-08-21T04:00:23;8.43;;;4.07;;
5060;SDS011;2549;52.128;21.068;2022-08-21T04:02:51;7.90;;;4.60;;
5060;SDS011;2549;52.128;21.068;2022-08-21T04:05:18;8.00;;;4.30;;
5060;SDS011;2549;52.128;21.068;2022-08-21T04:08:01;12.37;;;4.73;;
5060;SDS011;2549;52.128;21.068;2022-08-21T04:10:30;9.00;;;3.87;;
5060;SDS011;2549;52.128;21.068;2022-08-21T04:13:00;4.70;;;3.73;;
5060;SDS011;2549;52.128;21.068;2022-08-21T04:15:28;5.87;;;4.40;;
5060;SDS011;2549;52.128;21.068;2022-08-21T04:17:55;4.20;;;3.80;;
5060;SDS011;2549;52.128;21.068;2022-08-21T04:20:22;7.90;;;4.17;;
5060;SDS011;2549;52.128;21.068;2022-08-21T04:22:49;4.77;;;3.83;;
5060;SDS011;2549;52.128;21.068;2022-08-21T04:25:17;7.20;;;3.97;;
5060;SDS011;2549;52.128;21.068;2022-08-21T04:27:46;5.63;;;4.87;;
5060;SDS011;2549;52.128;21.068;2022-08-21T04:30:14;4.53;;;4.07;;
5060;SDS011;2549;52.128;21.068;2022-08-21T04:32:42;6.33;;;4.60;;
5060;SDS011;2549;52.128;21.068;2022-08-21T04:35:15;6.57;;;4.20;;
5060;SDS011;2549;52.128;21.068;2022-08-21T04:37:45;4.33;;;3.93;;
5060;SDS011;2549;52.128;21.068;2022-08-21T04:40:13;4.53;;;3.90;;
5060;SDS011;2549;52.128;21.068;2022-08-21T04:42:46;6.73;;;4.33;;
5060;SDS011;2549;52.128;21.068;2022-08-21T04:45:23;9.17;;;4.13;;
5060;SDS011;2549;52.128;21.068;2022-08-21T04:47:54;4.50;;;4.10;;
5060;SDS011;2549;52.128;21.068;2022-08-21T04:50:24;5.70;;;4.13;;
5060;SDS011;2549;52.128;21.068;2022-08-21T04:52:54;4.37;;;4.00;;
5060;SDS011;2549;52.128;21.068;2022-08-21T04:55:22;6.80;;;4.50;;
5060;SDS011;2549;52.128;21.068;2022-08-21T04:57:50;6.37;;;3.87;;
5060;SDS011;2549;52.128;21.068;2022-08-21T05:00:20;4.40;;;4.00;;
5060;SDS011;2549;52.128;21.068;2022-08-21T05:02:48;6.37;;;3.93;;
5060;SDS011;2549;52.128;21.068;2022-08-21T05:05:16;5.77;;;4.50;;
5060;SDS011;2549;52.128;21.068;2022-08-21T05:07:43;9.83;;;3.57;;
5060;SDS011;2549;52.128;21.068;2022-08-21T05:10:12;4.70;;;4.20;;
5060;SDS011;2549;52.128;21.068;2022-08-21T05:12:41;7.10;;;4.77;;
5060;SDS011;2549;52.128;21.068;2022-08-21T05:15:09;6.70;;;4.00;;
5060;SDS011;2549;52.128;21.068;2022-08-21T05:17:39;8.20;;;4.07;;
5060;SDS011;2549;52.128;21.068;2022-08-21T05:20:08;4.77;;;4.37;;
5060;SDS011;2549;52.128;21.068;2022-08-21T05:22:37;4.30;;;3.90;;
5060;SDS011;2549;52.128;21.068;2022-08-21T05:25:05;8.90;;;3.73;;
5060;SDS011;2549;52.128;21.068;2022-08-21T05:27:36;9.30;;;4.00;;
5060;SDS011;2549;52.128;21.068;2022-08-21T05:30:05;6.03;;;3.60;;
5060;SDS011;2549;52.128;21.068;2022-08-21T05:32:34;8.03;;;4.10;;
5060;SDS011;2549;52.128;21.068;2022-08-21T05:35:02;4.73;;;3.60;;
5060;SDS011;2549;52.128;21.068;2022-08-21T05:37:31;11.23;;;4.20;;
5060;SDS011;2549;52.128;21.068;2022-08-21T05:39:59;6.03;;;4.10;;
5060;SDS011;2549;52.128;21.068;2022-08-21T05:42:47;5.93;;;5.13;;
5060;SDS011;2549;52.128;21.068;2022-08-21T05:45:21;5.30;;;4.03;;
5060;SDS011;2549;52.128;21.068;2022-08-21T05:48:08;6.73;;;4.03;;
5060;SDS011;2549;52.128;21.068;2022-08-21T05:50:36;5.40;;;4.40;;
5060;SDS011;2549;52.128;21.068;2022-08-21T05:53:04;5.17;;;4.23;;
5060;SDS011;2549;52.128;21.068;2022-08-21T05:55:33;4.90;;;3.60;;
5060;SDS011;2549;52.128;21.068;2022-08-21T05:58:04;9.13;;;3.50;;
5060;SDS011;2549;52.128;21.068;2022-08-21T06:00:31;4.07;;;3.67;;
5060;SDS011;2549;52.128;21.068;2022-08-21T06:02:58;4.83;;;4.33;;
5060;SDS011;2549;52.128;21.068;2022-08-21T06:05:25;5.87;;;3.60;;
5060;SDS011;2549;52.128;21.068;2022-08-21T06:08:02;4.80;;;3.90;;
5060;SDS011;2549;52.128;21.068;2022-08-21T06:10:30;4.70;;;4.20;;
5060;SDS011;2549;52.128;21.068;2022-08-21T06:12:57;8.10;;;3.43;;
5060;SDS011;2549;52.128;21.068;2022-08-21T06:15:24;5.57;;;3.97;;
5060;SDS011;2549;52.128;21.068;2022-08-21T06:17:52;10.50;;;4.07;;
5060;SDS011;2549;52.128;21.068;2022-08-21T06:20:20;5.60;;;4.73;;
5060;SDS011;2549;52.128;21.068;2022-08-21T06:22:47;7.90;;;4.00;;
5060;SDS011;2549;52.128;21.068;2022-08-21T06:25:14;5.37;;;3.90;;
5060;SDS011;2549;52.128;21.068;2022-08-21T06:27:41;7.40;;;4.33;;
5060;SDS011;2549;52.128;21.068;2022-08-21T06:30:08;8.37;;;4.50;;
5060;SDS011;2549;52.128;21.068;2022-08-21T06:32:35;4.83;;;4.10;;
5060;SDS011;2549;52.128;21.068;2022-08-21T06:35:04;6.33;;;4.40;;
5060;SDS011;2549;52.128;21.068;2022-08-21T06:37:31;8.27;;;4.17;;
5060;SDS011;2549;52.128;21.068;2022-08-21T06:39:58;6.00;;;4.40;;
5060;SDS011;2549;52.128;21.068;2022-08-21T06:42:25;4.27;;;3.87;;
5060;SDS011;2549;52.128;21.068;2022-08-21T06:44:54;7.67;;;3.90;;
5060;SDS011;2549;52.128;21.068;2022-08-21T06:47:22;4.57;;;4.17;;
5060;SDS011;2549;52.128;21.068;2022-08-21T06:49:49;6.30;;;4.30;;
5060;SDS011;2549;52.128;21.068;2022-08-21T06:52:16;8.93;;;4.20;;
5060;SDS011;2549;52.128;21.068;2022-08-21T06:54:43;8.63;;;4.23;;
5060;SDS011;2549;52.128;21.068;2022-08-21T06:57:10;9.00;;;3.97;;
5060;SDS011;2549;52.128;21.068;2022-08-21T06:59:37;4.40;;;3.90;;
5060;SDS011;2549;52.128;21.068;2022-08-21T07:02:04;12.50;;;3.90;;
5060;SDS011;2549;52.128;21.068;2022-08-21T07:04:31;3.90;;;3.47;;
5060;SDS011;2549;52.128;21.068;2022-08-21T07:06:58;4.50;;;4.10;;
5060;SDS011;2549;52.128;21.068;2022-08-21T07:09:25;4.33;;;3.93;;
5060;SDS011;2549;52.128;21.068;2022-08-21T07:11:53;4.50;;;4.10;;
5060;SDS011;2549;52.128;21.068;2022-08-21T07:14:21;4.50;;;4.17;;
5060;SDS011;2549;52.128;21.068;2022-08-21T07:16:49;6.03;;;3.80;;
5060;SDS011;2549;52.128;21.068;2022-08-21T07:19:20;4.53;;;4.03;;
5060;SDS011;2549;52.128;21.068;2022-08-21T07:21:47;5.40;;;3.60;;
5060;SDS011;2549;52.128;21.068;2022-08-21T07:24:14;12.00;;;3.80;;
5060;SDS011;2549;52.128;21.068;2022-08-21T07:26:41;7.13;;;4.03;;
5060;SDS011;2549;52.128;21.068;2022-08-21T07:29:08;9.60;;;4.37;;
5060;SDS011;2549;52.128;21.068;2022-08-21T07:31:35;5.77;;;3.90;;
5060;SDS011;2549;52.128;21.068;2022-08-21T07:34:02;7.60;;;3.90;;
5060;SDS011;2549;52.128;21.068;2022-08-21T07:36:29;7.20;;;4.03;;
5060;SDS011;2549;52.128;21.068;2022-08-21T07:38:58;9.73;;;4.83;;
5060;SDS011;2549;52.128;21.068;2022-08-21T07:41:26;5.03;;;3.87;;
5060;SDS011;2549;52.128;21.068;2022-08-21T07:43:58;5.20;;;4.00;;
5060;SDS011;2549;52.128;21.068;2022-08-21T07:46:25;6.53;;;4.17;;
5060;SDS011;2549;52.128;21.068;2022-08-21T07:48:53;7.07;;;4.53;;
5060;SDS011;2549;52.128;21.068;2022-08-21T07:51:21;3.80;;;3.40;;
5060;SDS011;2549;52.128;21.068;2022-08-21T07:53:52;4.57;;;4.17;;
5060;SDS011;2549;52.128;21.068;2022-08-21T07:56:20;4.40;;;4.00;;
5060;SDS011;2549;52.128;21.068;2022-08-21T07:58:47;4.60;;;4.20;;
5060;SDS011;2549;52.128;21.068;2022-08-21T08:01:14;6.33;;;4.20;;
5060;SDS011;2549;52.128;21.068;2022-08-21T08:03:41;6.90;;;4.20;;
5060;SDS011;2549;52.128;21.068;2022-08-21T08:06:08;6.00;;;3.70;;
5060;SDS011;2549;52.128;21.068;2022-08-21T08:08:39;6.23;;;4.77;;
5060;SDS011;2549;52.128;21.068;2022-08-21T08:11:08;3.77;;;3.37;;
5060;SDS011;2549;52.128;21.068;2022-08-21T08:13:39;4.03;;;3.73;;
5060;SDS011;2549;52.128;21.068;2022-08-21T08:16:08;4.80;;;3.73;;
5060;SDS011;2549;52.128;21.068;2022-08-21T08:18:35;4.03;;;3.63;;
5060;SDS011;2549;52.128;21.068;2022-08-21T08:21:02;6.70;;;4.33;;
5060;SDS011;2549;52.128;21.068;2022-08-21T08:23:31;4.40;;;4.00;;
5060;SDS011;2549;52.128;21.068;2022-08-21T08:25:58;10.27;;;4.40;;
5060;SDS011;2549;52.128;21.068;2022-08-21T08:28:25;14.13;;;3.80;;
5060;SDS011;2549;52.128;21.068;2022-08-21T08:30:53;4.20;;;3.90;;
5060;SDS011;2549;52.128;21.068;2022-08-21T08:33:20;4.53;;;4.13;;
5060;SDS011;2549;52.128;21.068;2022-08-21T08:35:48;6.13;;;4.23;;
5060;SDS011;2549;52.128;21.068;2022-08-21T08:38:17;6.70;;;3.60;;
5060;SDS011;2549;52.128;21.068;2022-08-21T08:41:01;5.80;;;4.17;;
5060;SDS011;2549;52.128;21.068;2022-08-21T08:43:29;3.70;;;3.40;;
5060;SDS011;2549;52.128;21.068;2022-08-21T08:45:59;9.73;;;4.27;;
5060;SDS011;2549;52.128;21.068;2022-08-21T08:51:40;3.87;;;3.40;;
5060;SDS011;2549;52.128;21.068;2022-08-21T08:54:07;4.03;;;3.70;;
5060;SDS011;2549;52.128;21.068;2022-08-21T08:56:39;3.47;;;3.27;;
5060;SDS011;2549;52.128;21.068;2022-08-21T08:59:18;7.50;;;3.47;;
5060;SDS011;2549;52.128;21.068;2022-08-21T09:01:49;4.10;;;3.60;;
5060;SDS011;2549;52.128;21.068;2022-08-21T09:04:20;4.10;;;3.50;;
5060;SDS011;2549;52.128;21.068;2022-08-21T09:09:34;3.40;;;3.10;;
5060;SDS011;2549;52.128;21.068;2022-08-21T09:12:23;3.93;;;3.50;;
5060;SDS011;2549;52.128;21.068;2022-08-21T09:15:14;3.10;;;2.80;;
5060;SDS011;2549;52.128;21.068;2022-08-21T09:20:56;12.73;;;2.70;;
5060;SDS011;2549;52.128;21.068;2022-08-21T09:26:24;3.30;;;3.00;;
5060;SDS011;2549;52.128;21.068;2022-08-21T09:28:54;3.23;;;3.03;;
5060;SDS011;2549;52.128;21.068;2022-08-21T09:34:03;3.97;;;3.20;;
5060;SDS011;2549;52.128;21.068;2022-08-21T09:36:39;5.57;;;2.30;;
5060;SDS011;2549;52.128;21.068;2022-08-21T09:39:13;4.87;;;2.73;;
5060;SDS011;2549;52.128;21.068;2022-08-21T09:42:00;3.10;;;2.90;;
5060;SDS011;2549;52.128;21.068;2022-08-21T09:44:31;4.53;;;2.90;;
5060;SDS011;2549;52.128;21.068;2022-08-21T09:47:00;3.40;;;3.10;;
5060;SDS011;2549;52.128;21.068;2022-08-21T09:49:31;3.33;;;3.03;;
5060;SDS011;2549;52.128;21.068;2022-08-21T09:52:04;6.43;;;2.60;;
5060;SDS011;2549;52.128;21.068;2022-08-21T09:54:44;5.60;;;2.67;;
5060;SDS011;2549;52.128;21.068;2022-08-21T09:57:23;2.67;;;2.47;;
5060;SDS011;2549;52.128;21.068;2022-08-21T10:00:19;3.40;;;3.13;;
5060;SDS011;2549;52.128;21.068;2022-08-21T10:02:49;3.70;;;2.70;;
5060;SDS011;2549;52.128;21.068;2022-08-21T10:07:49;6.10;;;2.43;;
5060;SDS011;2549;52.128;21.068;2022-08-21T10:10:23;2.60;;;2.50;;
5060;SDS011;2549;52.128;21.068;2022-08-21T10:15:39;6.60;;;2.03;;
5060;SDS011;2549;52.128;21.068;2022-08-21T10:18:35;2.67;;;2.47;;
5060;SDS011;2549;52.128;21.068;2022-08-21T10:21:19;3.33;;;2.23;;
5060;SDS011;2549;52.128;21.068;2022-08-21T10:29:42;3.00;;;2.80;;
5060;SDS011;2549;52.128;21.068;2022-08-21T10:32:17;13.23;;;2.53;;
5060;SDS011;2549;52.128;21.068;2022-08-21T10:40:27;3.53;;;3.23;;
5060;SDS011;2549;52.128;21.068;2022-08-21T10:43:24;4.50;;;2.43;;
5060;SDS011;2549;52.128;21.068;2022-08-21T10:54:41;2.90;;;2.40;;
5060;SDS011;2549;52.128;21.068;2022-08-21T10:57:22;2.87;;;2.50;;
5060;SDS011;2549;52.128;21.068;2022-08-21T11:00:08;2.20;;;2.00;;
5060;SDS011;2549;52.128;21.068;2022-08-21T11:02:46;2.00;;;1.90;;
5060;SDS011;2549;52.128;21.068;2022-08-21T11:07:53;2.10;;;2.00;;
5060;SDS011;2549;52.128;21.068;2022-08-21T11:13:33;2.53;;;2.33;;
5060;SDS011;2549;52.128;21.068;2022-08-21T11:19:09;2.47;;;2.27;;
5060;SDS011;2549;52.128;21.068;2022-08-21T11:24:44;4.43;;;2.30;;
5060;SDS011;2549;52.128;21.068;2022-08-21T11:27:26;2.37;;;2.17;;
5060;SDS011;2549;52.128;21.068;2022-08-21T11:30:04;2.73;;;2.20;;
5060;SDS011;2549;52.128;21.068;2022-08-21T11:48:33;3.00;;;2.10;;
5060;SDS011;2549;52.128;21.068;2022-08-21T11:51:10;3.03;;;2.20;;
5060;SDS011;2549;52.128;21.068;2022-08-21T11:53:52;2.57;;;2.37;;
5060;SDS011;2549;52.128;21.068;2022-08-21T11:56:27;3.20;;;2.03;;
5060;SDS011;2549;52.128;21.068;2022-08-21T11:59:01;2.37;;;2.17;;
5060;SDS011;2549;52.128;21.068;2022-08-21T12:01:33;5.47;;;2.33;;
5060;SDS011;2549;52.128;21.068;2022-08-21T12:04:08;2.77;;;2.53;;
5060;SDS011;2549;52.128;21.068;2022-08-21T12:06:44;2.50;;;2.40;;
5060;SDS011;2549;52.128;21.068;2022-08-21T12:11:51;3.10;;;2.13;;
5060;SDS011;2549;52.128;21.068;2022-08-21T12:14:40;2.50;;;2.40;;
5060;SDS011;2549;52.128;21.068;2022-08-21T12:19:58;3.30;;;2.43;;
5060;SDS011;2549;52.128;21.068;2022-08-21T12:22:39;2.67;;;2.40;;
5060;SDS011;2549;52.128;21.068;2022-08-21T12:25:08;2.43;;;2.33;;
5060;SDS011;2549;52.128;21.068;2022-08-21T12:27:47;2.83;;;2.63;;
5060;SDS011;2549;52.128;21.068;2022-08-21T12:32:57;2.07;;;1.97;;
5060;SDS011;2549;52.128;21.068;2022-08-21T12:35:36;2.27;;;2.10;;
5060;SDS011;2549;52.128;21.068;2022-08-21T12:38:12;2.57;;;2.10;;
5060;SDS011;2549;52.128;21.068;2022-08-21T12:41:00;2.40;;;2.20;;
5060;SDS011;2549;52.128;21.068;2022-08-21T12:43:34;1.90;;;1.80;;
5060;SDS011;2549;52.128;21.068;2022-08-21T12:46:16;2.43;;;2.33;;
5060;SDS011;2549;52.128;21.068;2022-08-21T12:55:11;3.17;;;2.83;;
5060;SDS011;2549;52.128;21.068;2022-08-21T12:57:42;2.40;;;2.20;;
5060;SDS011;2549;52.128;21.068;2022-08-21T13:00:10;3.17;;;2.43;;
5060;SDS011;2549;52.128;21.068;2022-08-21T13:02:42;2.30;;;2.20;;
5060;SDS011;2549;52.128;21.068;2022-08-21T13:05:15;7.20;;;2.40;;
5060;SDS011;2549;52.128;21.068;2022-08-21T13:07:48;2.70;;;2.50;;
5060;SDS011;2549;52.128;21.068;2022-08-21T13:10:19;6.83;;;2.70;;
5060;SDS011;2549;52.128;21.068;2022-08-21T13:12:54;2.60;;;2.40;;
5060;SDS011;2549;52.128;21.068;2022-08-21T13:15:27;2.60;;;2.50;;
5060;SDS011;2549;52.128;21.068;2022-08-21T13:17:58;3.27;;;2.27;;
5060;SDS011;2549;52.128;21.068;2022-08-21T13:20:33;2.10;;;2.00;;
5060;SDS011;2549;52.128;21.068;2022-08-21T13:23:06;4.27;;;2.27;;
5060;SDS011;2549;52.128;21.068;2022-08-21T13:25:44;2.80;;;2.60;;
5060;SDS011;2549;52.128;21.068;2022-08-21T13:28:12;2.87;;;2.67;;
5060;SDS011;2549;52.128;21.068;2022-08-21T13:34:04;2.43;;;2.30;;
5060;SDS011;2549;52.128;21.068;2022-08-21T13:36:35;2.70;;;2.50;;
5060;SDS011;2549;52.128;21.068;2022-08-21T13:39:04;6.13;;;2.60;;
5060;SDS011;2549;52.128;21.068;2022-08-21T13:41:35;2.63;;;2.47;;
5060;SDS011;2549;52.128;21.068;2022-08-21T13:44:15;3.80;;;2.00;;
5060;SDS011;2549;52.128;21.068;2022-08-21T13:46:46;3.80;;;2.10;;
5060;SDS011;2549;52.128;21.068;2022-08-21T13:49:16;2.33;;;2.23;;
5060;SDS011;2549;52.128;21.068;2022-08-21T13:51:45;3.40;;;2.97;;
5060;SDS011;2549;52.128;21.068;2022-08-21T13:54:29;4.40;;;2.63;;
5060;SDS011;2549;52.128;21.068;2022-08-21T13:57:03;2.30;;;2.10;;
5060;SDS011;2549;52.128;21.068;2022-08-21T13:59:41;3.17;;;2.97;;
5060;SDS011;2549;52.128;21.068;2022-08-21T14:02:10;2.40;;;2.30;;
5060;SDS011;2549;52.128;21.068;2022-08-21T14:04:51;2.70;;;2.50;;
5060;SDS011;2549;52.128;21.068;2022-08-21T14:07:31;3.60;;;2.00;;
5060;SDS011;2549;52.128;21.068;2022-08-21T14:10:03;2.57;;;2.40;;
5060;SDS011;2549;52.128;21.068;2022-08-21T14:12:34;2.40;;;2.23;;
5060;SDS011;2549;52.128;21.068;2022-08-21T14:15:09;2.33;;;2.20;;
5060;SDS011;2549;52.128;21.068;2022-08-21T14:17:40;2.90;;;2.60;;
5060;SDS011;2549;52.128;21.068;2022-08-21T14:20:09;2.37;;;2.27;;
5060;SDS011;2549;52.128;21.068;2022-08-21T14:22:51;2.30;;;2.10;;
5060;SDS011;2549;52.128;21.068;2022-08-21T14:30:33;2.07;;;1.97;;
5060;SDS011;2549;52.128;21.068;2022-08-21T14:33:03;2.93;;;2.30;;
5060;SDS011;2549;52.128;21.068;2022-08-21T14:35:35;6.00;;;2.33;;
5060;SDS011;2549;52.128;21.068;2022-08-21T14:38:10;3.07;;;2.43;;
5060;SDS011;2549;52.128;21.068;2022-08-21T14:40:39;3.67;;;2.30;;
5060;SDS011;2549;52.128;21.068;2022-08-21T14:43:06;2.10;;;2.00;;
5060;SDS011;2549;52.128;21.068;2022-08-21T14:45:34;2.57;;;2.43;;
5060;SDS011;2549;52.128;21.068;2022-08-21T14:48:03;3.07;;;2.87;;
5060;SDS011;2549;52.128;21.068;2022-08-21T14:50:30;4.53;;;2.23;;
5060;SDS011;2549;52.128;21.068;2022-08-21T14:52:57;2.90;;;2.70;;
5060;SDS011;2549;52.128;21.068;2022-08-21T14:55:25;2.13;;;2.03;;
5060;SDS011;2549;52.128;21.068;2022-08-21T14:57:53;6.73;;;2.53;;
5060;SDS011;2549;52.128;21.068;2022-08-21T15:00:23;2.50;;;2.20;;
5060;SDS011;2549;52.128;21.068;2022-08-21T15:03:01;2.00;;;1.90;;
5060;SDS011;2549;52.128;21.068;2022-08-21T15:05:28;1.90;;;1.80;;
5060;SDS011;2549;52.128;21.068;2022-08-21T15:07:59;1.90;;;1.80;;
5060;SDS011;2549;52.128;21.068;2022-08-21T15:10:26;3.33;;;2.70;;
5060;SDS011;2549;52.128;21.068;2022-08-21T15:12:54;2.43;;;2.33;;
5060;SDS011;2549;52.128;21.068;2022-08-21T15:15:21;2.17;;;2.07;;
5060;SDS011;2549;52.128;21.068;2022-08-21T15:17:48;2.40;;;2.30;;
5060;SDS011;2549;52.128;21.068;2022-08-21T15:20:15;5.43;;;2.93;;
5060;SDS011;2549;52.128;21.068;2022-08-21T15:22:42;1.80;;;1.70;;
5060;SDS011;2549;52.128;21.068;2022-08-21T15:25:13;2.10;;;2.00;;
5060;SDS011;2549;52.128;21.068;2022-08-21T15:27:40;1.97;;;1.87;;
5060;SDS011;2549;52.128;21.068;2022-08-21T15:30:08;5.80;;;2.17;;
5060;SDS011;2549;52.128;21.068;2022-08-21T15:32:35;3.27;;;1.90;;
5060;SDS011;2549;52.128;21.068;2022-08-21T15:35:02;2.30;;;2.10;;
5060;SDS011;2549;52.128;21.068;2022-08-21T15:37:29;2.70;;;2.47;;
5060;SDS011;2549;52.128;21.068;2022-08-21T15:39:57;2.10;;;1.87;;
5060;SDS011;2549;52.128;21.068;2022-08-21T15:42:25;3.37;;;2.50;;
5060;SDS011;2549;52.128;21.068;2022-08-21T15:44:54;2.40;;;2.20;;
5060;SDS011;2549;52.128;21.068;2022-08-21T15:47:22;2.60;;;2.43;;
5060;SDS011;2549;52.128;21.068;2022-08-21T15:49:54;4.50;;;2.40;;
5060;SDS011;2549;52.128;21.068;2022-08-21T15:52:22;2.43;;;2.33;;
5060;SDS011;2549;52.128;21.068;2022-08-21T15:54:49;3.13;;;1.97;;
5060;SDS011;2549;52.128;21.068;2022-08-21T15:57:17;2.50;;;2.30;;
5060;SDS011;2549;52.128;21.068;2022-08-21T16:00:00;3.30;;;2.80;;
5060;SDS011;2549;52.128;21.068;2022-08-21T16:02:39;13.73;;;4.00;;
5060;SDS011;2549;52.128;21.068;2022-08-21T16:05:08;7.47;;;2.73;;
5060;SDS011;2549;52.128;21.068;2022-08-21T16:07:38;5.33;;;3.50;;
5060;SDS011;2549;52.128;21.068;2022-08-21T16:10:06;2.77;;;2.57;;
5060;SDS011;2549;52.128;21.068;2022-08-21T16:12:35;3.27;;;2.80;;
5060;SDS011;2549;52.128;21.068;2022-08-21T16:15:07;2.60;;;2.40;;
5060;SDS011;2549;52.128;21.068;2022-08-21T16:17:46;3.40;;;3.10;;
5060;SDS011;2549;52.128;21.068;2022-08-21T16:20:15;5.20;;;2.73;;
5060;SDS011;2549;52.128;21.068;2022-08-21T16:22:45;5.23;;;2.50;;
5060;SDS011;2549;52.128;21.068;2022-08-21T16:25:12;3.23;;;2.93;;
5060;SDS011;2549;52.128;21.068;2022-08-21T16:27:43;3.47;;;3.17;;
5060;SDS011;2549;52.128;21.068;2022-08-21T16:30:13;3.47;;;3.17;;
5060;SDS011;2549;52.128;21.068;2022-08-21T16:32:42;3.30;;;3.00;;
5060;SDS011;2549;52.128;21.068;2022-08-21T16:35:11;3.40;;;3.10;;
5060;SDS011;2549;52.128;21.068;2022-08-21T16:37:40;3.40;;;3.10;;
5060;SDS011;2549;52.128;21.068;2022-08-21T16:40:08;6.20;;;3.20;;
5060;SDS011;2549;52.128;21.068;2022-08-21T16:42:39;4.20;;;2.60;;
5060;SDS011;2549;52.128;21.068;2022-08-21T16:45:09;3.87;;;3.47;;
5060;SDS011;2549;52.128;21.068;2022-08-21T16:47:38;4.23;;;3.57;;
5060;SDS011;2549;52.128;21.068;2022-08-21T16:50:05;8.13;;;2.87;;
5060;SDS011;2549;52.128;21.068;2022-08-21T16:52:33;2.93;;;2.83;;